createdAt,value
2022-11-03T00:02:16.578Z,28.80
2022-11-03T00:04:44.534Z,25.90
2022-11-03T00:07:12.470Z,28.50
2022-11-03T00:09:40.241Z,27.70
2022-11-03T00:12:08.435Z,25.30
2022-11-03T00:14:36.166Z,25.20
2022-11-03T00:17:03.945Z,24.80
2022-11-03T00:19:31.700Z,26.40
2022-11-03T00:21:59.669Z,25.10
2022-11-03T00:24:27.433Z,27.90
2022-11-03T00:26:55.198Z,22.10
2022-11-03T00:29:25.047Z,30.10
2022-11-03T00:31:52.793Z,26.90
2022-11-03T00:34:20.525Z,26.10
2022-11-03T00:36:48.299Z,25.00
2022-11-03T00:39:16.029Z,24.60
2022-11-03T00:41:43.726Z,26.00
2022-11-03T00:44:13.503Z,26.50
2022-11-03T00:46:41.299Z,27.50
2022-11-03T00:49:09.003Z,27.70
2022-11-03T00:51:36.767Z,26.40
2022-11-03T00:54:06.037Z,25.70
2022-11-03T00:56:36.449Z,25.20
2022-11-03T00:59:06.088Z,26.60
2022-11-03T01:01:45.164Z,28.40
2022-11-03T01:04:36.300Z,24.40
2022-11-03T01:07:05.975Z,25.70
2022-11-03T01:09:33.874Z,29.60
2022-11-03T01:12:14.439Z,28.30
2022-11-03T01:14:53.121Z,28.20
2022-11-03T01:17:23.691Z,24.90
2022-11-03T01:19:52.190Z,26.40
2022-11-03T01:22:21.573Z,24.90
2022-11-03T01:24:51.831Z,28.20
2022-11-03T01:27:25.184Z,29.70
2022-11-03T01:29:53.154Z,27.60
2022-11-03T01:32:21.020Z,23.90
2022-11-03T01:34:48.989Z,24.00
2022-11-03T01:37:16.752Z,28.40
2022-11-03T01:39:44.490Z,29.10
2022-11-03T01:42:14.664Z,28.10
2022-11-03T01:44:48.419Z,28.30
2022-11-03T01:47:26.170Z,27.80
2022-11-03T01:50:07.755Z,26.80
2022-11-03T01:52:45.013Z,29.60
2022-11-03T01:55:29.672Z,27.80
2022-11-03T01:58:05.991Z,27.50
2022-11-03T02:00:35.134Z,31.60
2022-11-03T02:03:04.506Z,28.00
2022-11-03T02:05:32.902Z,25.60
2022-11-03T02:08:10.521Z,25.70
2022-11-03T02:10:38.822Z,26.70
2022-11-03T02:13:19.754Z,26.00
2022-11-03T02:15:49.938Z,25.90
2022-11-03T02:18:22.657Z,26.30
2022-11-03T02:21:03.505Z,25.20
2022-11-03T02:23:46.438Z,26.20
2022-11-03T02:26:16.269Z,25.90
2022-11-03T02:28:44.506Z,25.10
2022-11-03T02:31:35.622Z,26.70
2022-11-03T02:34:15.082Z,26.60
2022-11-03T02:36:56.668Z,23.00
2022-11-03T02:39:36.006Z,23.20
2022-11-03T02:42:05.397Z,25.30
2022-11-03T02:44:34.577Z,23.70
2022-11-03T02:47:08.356Z,19.70
2022-11-03T02:49:40.758Z,27.00
2022-11-03T02:52:41.940Z,22.60
2022-11-03T02:55:23.105Z,21.10
2022-11-03T02:58:00.703Z,25.30
2022-11-03T03:00:31.421Z,22.90
2022-11-03T03:03:11.589Z,22.30
2022-11-03T03:05:42.733Z,25.40
2022-11-03T03:08:12.462Z,25.60
2022-11-03T03:10:46.849Z,25.80
2022-11-03T03:13:18.487Z,24.00
2022-11-03T03:15:46.142Z,26.60
2022-11-03T03:18:31.244Z,26.10
2022-11-03T03:21:05.041Z,22.70
2022-11-03T03:23:37.017Z,25.20
2022-11-03T03:26:07.469Z,24.50
2022-11-03T03:28:48.513Z,22.60
2022-11-03T03:31:19.762Z,22.20
2022-11-03T03:33:53.266Z,32.10
2022-11-03T03:36:27.313Z,32.90
2022-11-03T03:39:02.691Z,23.10
2022-11-03T03:41:32.715Z,26.30
2022-11-03T03:44:06.109Z,28.70
2022-11-03T03:46:41.158Z,23.90
2022-11-03T03:49:09.472Z,27.60
2022-11-03T03:51:38.629Z,26.00
2022-11-03T03:54:06.525Z,24.00
2022-11-03T03:56:41.739Z,23.60
2022-11-03T03:59:09.505Z,26.30
2022-11-03T04:01:37.340Z,21.00
2022-11-03T04:04:05.424Z,24.80
2022-11-03T04:06:33.215Z,22.60
2022-11-03T04:09:00.962Z,23.10
2022-11-03T04:11:47.673Z,23.80
2022-11-03T04:14:34.481Z,26.80
2022-11-03T04:17:20.983Z,21.50
2022-11-03T04:20:07.386Z,24.60
2022-11-03T04:22:35.556Z,26.40
2022-11-03T04:25:03.495Z,25.90
2022-11-03T04:27:36.639Z,25.50
2022-11-03T04:30:10.257Z,26.30
2022-11-03T04:35:22.741Z,25.20
2022-11-03T04:38:02.091Z,23.40
2022-11-03T04:40:29.922Z,26.70
2022-11-03T04:42:58.011Z,26.60
2022-11-03T04:45:30.282Z,28.30
2022-11-03T04:48:00.347Z,29.80
2022-11-03T04:50:28.164Z,26.50
2022-11-03T04:52:58.591Z,24.90
2022-11-03T04:55:27.006Z,27.00
2022-11-03T04:58:02.708Z,24.10
2022-11-03T05:00:30.423Z,28.00
2022-11-03T05:02:58.452Z,27.50
2022-11-03T05:05:26.946Z,28.00
2022-11-03T05:07:57.056Z,26.00
2022-11-03T05:10:29.342Z,27.00
2022-11-03T05:12:57.690Z,27.70
2022-11-03T05:15:34.986Z,26.60
2022-11-03T05:18:16.074Z,25.00
2022-11-03T05:20:54.373Z,25.90
2022-11-03T05:23:23.227Z,27.80
2022-11-03T05:25:53.894Z,34.40
2022-11-03T05:28:26.522Z,28.10
2022-11-03T05:30:55.056Z,24.90
2022-11-03T05:33:29.473Z,28.30
2022-11-03T05:36:00.922Z,34.20
2022-11-03T05:38:33.265Z,30.20
2022-11-03T05:41:01.571Z,28.60
2022-11-03T05:43:30.076Z,30.30
2022-11-03T05:46:02.323Z,28.60
2022-11-03T05:48:35.354Z,27.50
2022-11-03T05:51:22.627Z,30.00
2022-11-03T05:54:03.939Z,26.90
2022-11-03T05:56:33.250Z,28.00
2022-11-03T05:59:02.325Z,26.70
2022-11-03T06:01:35.626Z,26.90
2022-11-03T06:06:41.171Z,28.40
2022-11-03T06:09:17.873Z,28.60
2022-11-03T06:11:46.315Z,26.00
2022-11-03T06:14:28.212Z,30.00
2022-11-03T06:17:08.261Z,28.10
2022-11-03T06:19:42.478Z,29.70
2022-11-03T06:22:24.715Z,31.40
2022-11-03T06:24:57.355Z,31.40
2022-11-03T06:27:28.394Z,28.20
2022-11-03T06:30:19.505Z,31.20
2022-11-03T06:32:47.371Z,29.80
2022-11-03T06:35:15.585Z,30.50
2022-11-03T06:37:44.585Z,33.10
2022-11-03T06:40:15.279Z,31.60
2022-11-03T06:42:43.444Z,30.60
2022-11-03T06:45:24.213Z,30.60
2022-11-03T06:47:55.334Z,32.50
2022-11-03T06:50:23.008Z,34.40
2022-11-03T06:52:52.215Z,30.20
2022-11-03T06:55:26.530Z,38.30
2022-11-03T06:58:00.582Z,31.30
2022-11-03T07:00:34.685Z,30.30
2022-11-03T07:03:11.224Z,31.50
2022-11-03T07:05:39.811Z,28.50
2022-11-03T07:08:43.319Z,26.10
2022-11-03T07:11:27.710Z,32.40
2022-11-03T07:14:31.825Z,28.50
2022-11-03T07:17:05.003Z,25.20
2022-11-03T07:19:45.275Z,28.40
2022-11-03T07:22:23.417Z,34.00
2022-11-03T07:24:59.305Z,31.00
2022-11-03T07:27:32.353Z,29.30
2022-11-03T07:30:22.870Z,25.20
2022-11-03T07:32:56.092Z,28.90
2022-11-03T07:36:14.962Z,27.20
2022-11-03T07:38:33.779Z,28.40
2022-11-03T07:41:01.644Z,26.00
2022-11-03T07:43:36.004Z,26.80
2022-11-03T07:46:05.878Z,24.60
2022-11-03T07:48:47.364Z,25.80
2022-11-03T07:51:30.065Z,26.30
2022-11-03T07:54:10.489Z,23.20
2022-11-03T07:57:00.427Z,22.90
2022-11-03T07:59:28.183Z,28.80
2022-11-03T08:01:57.799Z,26.00
2022-11-03T08:04:32.926Z,22.20
2022-11-03T08:07:00.848Z,25.90
2022-11-03T08:09:28.557Z,24.80
2022-11-03T08:11:56.333Z,22.80
2022-11-03T08:14:24.186Z,24.20
2022-11-03T08:16:51.908Z,23.30
2022-11-03T08:19:19.648Z,21.40
2022-11-03T08:21:47.485Z,21.70
2022-11-03T08:24:15.240Z,21.90
2022-11-03T08:26:43.107Z,22.80
2022-11-03T08:29:10.829Z,25.10
2022-11-03T08:31:38.636Z,20.20
2022-11-03T08:34:06.451Z,19.60
2022-11-03T08:36:34.264Z,19.10
2022-11-03T08:39:02.129Z,22.60
2022-11-03T08:41:31.076Z,19.70
2022-11-03T08:43:58.789Z,21.70
2022-11-03T08:46:26.650Z,19.00
2022-11-03T08:48:54.456Z,21.00
2022-11-03T08:51:22.178Z,20.40
2022-11-03T08:53:52.644Z,21.70
2022-11-03T08:56:22.564Z,23.70
2022-11-03T08:58:50.646Z,21.80
2022-11-03T09:01:18.888Z,25.30
2022-11-03T09:03:46.794Z,19.70
2022-11-03T09:06:14.810Z,20.30
2022-11-03T09:11:30.402Z,16.00
2022-11-03T09:13:58.196Z,17.00
2022-11-03T09:16:26.495Z,19.20
2022-11-03T09:18:54.636Z,18.70
2022-11-03T09:21:22.718Z,20.30
2022-11-03T09:23:50.548Z,17.70
2022-11-03T09:26:19.234Z,16.90
2022-11-03T09:28:49.459Z,17.30
2022-11-03T09:31:18.773Z,13.70
2022-11-03T09:33:46.620Z,14.80
2022-11-03T09:36:14.488Z,17.00
2022-11-03T09:38:42.255Z,14.40
2022-11-03T09:41:26.421Z,13.50
2022-11-03T09:43:58.357Z,16.10
2022-11-03T09:46:29.051Z,16.90
2022-11-03T09:48:57.085Z,10.10
2022-11-03T09:51:27.287Z,13.50
2022-11-03T09:54:02.245Z,14.30
2022-11-03T09:56:31.003Z,13.10
2022-11-03T09:58:59.998Z,14.30
2022-11-03T10:01:28.012Z,15.40
2022-11-03T10:03:59.639Z,12.80
2022-11-03T10:06:27.587Z,8.90
2022-11-03T10:08:56.146Z,10.00
2022-11-03T10:11:24.239Z,16.70
2022-11-03T10:13:56.343Z,11.90
2022-11-03T10:16:25.482Z,13.00
2022-11-03T10:18:53.685Z,14.10
2022-11-03T10:21:29.734Z,11.90
2022-11-03T10:23:57.447Z,10.70
2022-11-03T10:26:25.500Z,9.80
2022-11-03T10:29:05.065Z,11.60
2022-11-03T10:31:39.837Z,10.60
2022-11-03T10:34:39.520Z,14.60
2022-11-03T10:37:23.838Z,13.10
2022-11-03T10:39:54.798Z,16.20
2022-11-03T10:42:34.914Z,8.70
2022-11-03T10:45:21.922Z,16.80
2022-11-03T10:48:01.210Z,12.00
2022-11-03T10:50:29.816Z,13.70
2022-11-03T10:52:58.085Z,11.80
2022-11-03T10:55:27.071Z,8.50
2022-11-03T10:57:56.412Z,8.70
2022-11-03T11:00:24.981Z,13.70
2022-11-03T11:02:59.099Z,12.90
2022-11-03T11:05:27.540Z,13.80
2022-11-03T11:07:56.328Z,11.80
2022-11-03T11:10:27.134Z,13.60
2022-11-03T11:13:26.011Z,11.40
2022-11-03T11:15:59.895Z,13.10
2022-11-03T11:18:31.472Z,11.40
2022-11-03T11:21:01.731Z,10.70
2022-11-03T11:23:29.573Z,10.10
2022-11-03T11:26:10.772Z,13.50
2022-11-03T11:28:41.691Z,12.00
2022-11-03T11:31:27.651Z,8.90
2022-11-03T11:34:11.103Z,11.00
2022-11-03T11:36:41.974Z,10.10
2022-11-03T11:39:28.357Z,17.10
2022-11-03T11:42:19.954Z,13.40
2022-11-03T11:44:54.079Z,11.30
2022-11-03T11:47:31.763Z,17.40
2022-11-03T11:50:07.142Z,14.50
2022-11-03T11:52:53.821Z,16.00
2022-11-03T11:55:37.346Z,15.80
2022-11-03T12:00:36.204Z,15.40
2022-11-03T12:03:06.955Z,12.30
2022-11-03T12:05:39.267Z,14.90
2022-11-03T12:08:21.644Z,13.10
2022-11-03T12:11:04.427Z,12.60
2022-11-03T12:13:36.475Z,12.70
2022-11-03T12:16:05.548Z,12.90
2022-11-03T12:18:50.224Z,12.30
2022-11-03T12:21:46.709Z,14.80
2022-11-03T12:24:33.660Z,12.00
2022-11-03T12:27:03.915Z,12.10
2022-11-03T12:29:31.951Z,12.60
2022-11-03T12:32:00.200Z,13.70
2022-11-03T12:34:30.163Z,13.30
2022-11-03T12:36:58.707Z,16.10
2022-11-03T12:39:26.670Z,12.10
2022-11-03T12:41:54.637Z,14.00
2022-11-03T12:44:22.922Z,13.70
2022-11-03T12:46:51.003Z,14.30
2022-11-03T12:49:19.434Z,19.10
2022-11-03T12:51:47.156Z,14.50
2022-11-03T12:54:16.019Z,13.90
2022-11-03T12:56:44.621Z,13.90
2022-11-03T12:59:12.657Z,14.30
2022-11-03T13:01:40.749Z,14.20
2022-11-03T13:04:09.306Z,14.00
2022-11-03T13:06:37.088Z,18.60
2022-11-03T13:09:06.292Z,17.00
2022-11-03T13:11:53.572Z,15.70
2022-11-03T13:14:22.822Z,17.20
2022-11-03T13:16:50.766Z,13.50
2022-11-03T13:19:20.194Z,17.10
2022-11-03T13:21:49.192Z,18.10
2022-11-03T13:24:17.909Z,16.70
2022-11-03T13:26:45.854Z,13.50
2022-11-03T13:29:13.785Z,14.80
2022-11-03T13:31:42.707Z,15.00
2022-11-03T13:34:10.775Z,16.60
2022-11-03T13:36:39.465Z,13.90
2022-11-03T13:39:07.216Z,15.20
2022-11-03T13:41:35.192Z,15.90
2022-11-03T13:44:03.117Z,16.00
2022-11-03T13:46:31.129Z,15.40
2022-11-03T13:51:46.975Z,18.20
2022-11-03T13:59:52.123Z,19.40
2022-11-03T14:05:11.719Z,28.50
2022-11-03T14:07:40.478Z,24.00
2022-11-03T14:10:09.217Z,30.10
2022-11-03T14:12:37.270Z,27.50
2022-11-03T14:15:11.671Z,30.10
2022-11-03T14:17:40.763Z,24.70
2022-11-03T14:20:12.345Z,27.10
2022-11-03T14:22:41.212Z,30.10
2022-11-03T14:25:10.416Z,31.60
2022-11-03T14:27:38.565Z,22.30
2022-11-03T14:30:07.795Z,24.10
2022-11-03T14:32:35.789Z,29.40
2022-11-03T14:35:04.017Z,67.90
2022-11-03T14:37:34.100Z,47.30
2022-11-03T14:40:02.256Z,40.00
2022-11-03T14:42:29.967Z,38.20
2022-11-03T14:44:58.835Z,35.40
2022-11-03T14:47:26.851Z,41.80
2022-11-03T14:49:54.818Z,44.40
2022-11-03T14:52:22.760Z,42.00
2022-11-03T14:54:53.212Z,35.60
2022-11-03T14:57:21.129Z,46.60
2022-11-03T14:59:53.254Z,29.50
2022-11-03T15:02:21.500Z,30.90
2022-11-03T15:04:50.301Z,33.20
2022-11-03T15:07:18.027Z,35.10
2022-11-03T15:09:45.819Z,26.30
2022-11-03T15:12:13.568Z,25.10
2022-11-03T15:14:41.349Z,23.50
2022-11-03T15:17:09.074Z,25.30
2022-11-03T15:19:38.058Z,24.60
2022-11-03T15:22:06.013Z,23.40
2022-11-03T15:27:22.190Z,21.80
2022-11-03T15:29:49.924Z,25.00
2022-11-03T15:32:17.872Z,25.20
2022-11-03T15:34:45.583Z,29.50
2022-11-03T15:37:14.148Z,25.70
2022-11-03T15:39:43.057Z,25.70
2022-11-03T15:42:10.977Z,23.00
2022-11-03T15:44:38.931Z,24.20
2022-11-03T15:47:08.200Z,30.00
2022-11-03T15:49:37.307Z,27.70
2022-11-03T15:52:06.803Z,27.90
2022-11-03T15:54:38.436Z,30.60
2022-11-03T15:57:11.298Z,35.60
2022-11-03T15:59:41.130Z,30.10
2022-11-03T16:02:27.599Z,33.20
2022-11-03T16:04:58.522Z,35.80
2022-11-03T16:07:27.271Z,41.60
2022-11-03T16:09:57.060Z,39.60
2022-11-03T16:12:25.822Z,40.30
2022-11-03T16:14:54.991Z,35.30
2022-11-03T16:17:23.764Z,39.00
2022-11-03T16:19:51.775Z,38.20
2022-11-03T16:22:19.774Z,38.40
2022-11-03T16:24:48.776Z,34.90
2022-11-03T16:27:18.578Z,36.20
2022-11-03T16:29:48.461Z,42.60
2022-11-03T16:32:16.219Z,37.20
2022-11-03T16:34:45.643Z,34.90
2022-11-03T16:37:14.975Z,38.10
2022-11-03T16:39:43.955Z,37.50
2022-11-03T16:42:12.967Z,36.40
2022-11-03T16:44:40.945Z,34.40
2022-11-03T16:47:08.915Z,37.80
2022-11-03T16:49:42.294Z,42.10
2022-11-03T16:52:10.284Z,35.60
2022-11-03T16:54:39.138Z,35.90
2022-11-03T16:57:06.896Z,44.90
2022-11-03T16:59:35.163Z,44.30
2022-11-03T17:02:03.085Z,46.60
2022-11-03T17:04:34.001Z,43.50
2022-11-03T17:07:01.965Z,40.20
2022-11-03T17:09:29.903Z,42.10
2022-11-03T17:11:57.643Z,39.50
2022-11-03T17:14:25.366Z,41.20
2022-11-03T17:16:53.077Z,40.00
2022-11-03T17:19:22.246Z,43.90
2022-11-03T17:21:50.501Z,44.00
2022-11-03T17:24:19.242Z,43.20
2022-11-03T17:26:54.528Z,140.90
2022-11-03T17:29:36.865Z,57.40
2022-11-03T17:32:13.740Z,52.50
2022-11-03T17:34:41.549Z,54.10
2022-11-03T17:37:10.377Z,62.00
2022-11-03T17:39:42.185Z,64.80
2022-11-03T17:42:18.487Z,61.00
2022-11-03T17:44:49.561Z,62.10
2022-11-03T17:47:19.559Z,59.40
2022-11-03T17:49:48.796Z,55.30
2022-11-03T17:52:16.516Z,61.70
2022-11-03T17:54:45.048Z,60.90
2022-11-03T17:57:19.119Z,62.30
2022-11-03T17:59:50.967Z,75.30
2022-11-03T18:02:25.743Z,68.80
2022-11-03T18:05:20.316Z,72.90
2022-11-03T18:07:51.354Z,75.90
2022-11-03T18:10:20.476Z,75.00
2022-11-03T18:13:10.974Z,76.10
2022-11-03T18:15:41.510Z,69.40
2022-11-03T18:18:14.930Z,65.10
2022-11-03T18:20:52.921Z,66.40
2022-11-03T18:23:26.767Z,62.40
2022-11-03T18:25:54.567Z,65.70
2022-11-03T18:28:22.458Z,67.30
2022-11-03T18:30:54.550Z,68.20
2022-11-03T18:33:30.355Z,66.30
2022-11-03T18:36:03.186Z,65.70
2022-11-03T18:38:31.189Z,62.80
2022-11-03T18:40:59.182Z,60.80
2022-11-03T18:43:29.681Z,64.50
2022-11-03T18:45:57.480Z,66.50
2022-11-03T18:48:25.213Z,68.10
2022-11-03T18:50:57.234Z,65.70
2022-11-03T18:53:26.927Z,60.30
2022-11-03T18:56:00.633Z,58.40
2022-11-03T18:58:28.483Z,51.60
2022-11-03T19:00:57.121Z,48.90
2022-11-03T19:03:25.118Z,52.30
2022-11-03T19:05:54.032Z,48.70
2022-11-03T19:08:32.728Z,45.00
2022-11-03T19:11:04.520Z,48.00
2022-11-03T19:13:46.860Z,44.70
2022-11-03T19:16:22.864Z,45.00
2022-11-03T19:18:52.577Z,46.20
2022-11-03T19:21:24.314Z,45.30
2022-11-03T19:23:58.144Z,41.40
2022-11-03T19:26:34.620Z,43.50
2022-11-03T19:29:19.127Z,43.20
2022-11-03T19:31:50.210Z,43.30
2022-11-03T19:34:27.942Z,39.90
2022-11-03T19:36:58.088Z,37.40
2022-11-03T19:39:37.024Z,40.00
2022-11-03T19:42:30.427Z,45.70
2022-11-03T19:45:01.130Z,42.20
2022-11-03T19:47:41.787Z,46.70
2022-11-03T19:50:26.645Z,42.10
2022-11-03T19:53:03.359Z,39.10
2022-11-03T19:55:35.482Z,39.60
2022-11-03T19:58:14.333Z,41.50
2022-11-03T20:00:45.208Z,39.30
2022-11-03T20:03:14.712Z,35.30
2022-11-03T20:05:49.291Z,41.50
2022-11-03T20:08:22.946Z,44.20
2022-11-03T20:10:51.765Z,37.70
2022-11-03T20:13:25.942Z,38.40
2022-11-03T20:16:00.631Z,38.70
2022-11-03T20:18:30.311Z,40.90
2022-11-03T20:20:59.133Z,37.40
2022-11-03T20:23:31.569Z,39.30
2022-11-03T20:26:00.753Z,33.50
2022-11-03T20:28:32.552Z,38.60
2022-11-03T20:31:03.122Z,38.40
2022-11-03T20:33:30.947Z,33.80
2022-11-03T20:35:59.980Z,33.90
2022-11-03T20:38:29.131Z,30.10
2022-11-03T20:41:02.089Z,32.90
2022-11-03T20:43:38.607Z,39.80
2022-11-03T20:46:34.514Z,34.10
2022-11-03T20:49:02.641Z,39.30
2022-11-03T20:51:34.601Z,46.80
2022-11-03T20:54:11.827Z,37.80
2022-11-03T20:56:39.814Z,33.10
2022-11-03T20:59:11.427Z,31.70
2022-11-03T21:01:41.228Z,32.70
2022-11-03T21:04:17.501Z,34.10
2022-11-03T21:06:46.624Z,37.20
2022-11-03T21:09:19.174Z,29.40
2022-11-03T21:11:52.586Z,29.60
2022-11-03T21:14:33.890Z,26.30
2022-11-03T21:17:20.587Z,29.10
2022-11-03T21:20:03.813Z,31.20
2022-11-03T21:22:54.417Z,31.40
2022-11-03T21:25:25.134Z,29.30
2022-11-03T21:27:54.995Z,31.30
2022-11-03T21:30:24.195Z,33.70
2022-11-03T21:32:52.238Z,26.60
2022-11-03T21:35:22.215Z,29.00
2022-11-03T21:37:50.180Z,32.40
2022-11-03T21:40:18.346Z,29.70
2022-11-03T21:43:05.863Z,30.00
2022-11-03T21:45:33.683Z,32.20
2022-11-03T21:48:21.557Z,31.40
2022-11-03T21:50:50.693Z,30.90
2022-11-03T21:53:18.663Z,32.70
2022-11-03T21:55:50.323Z,26.30
2022-11-03T21:58:18.971Z,27.50
2022-11-03T22:00:48.328Z,26.20
2022-11-03T22:03:16.855Z,31.00
2022-11-03T22:05:44.846Z,31.70
2022-11-03T22:08:13.704Z,28.50
2022-11-03T22:10:41.957Z,31.10
2022-11-03T22:13:11.308Z,28.80
2022-11-03T22:15:59.918Z,32.50
2022-11-03T22:18:27.658Z,31.80
2022-11-03T22:21:17.174Z,28.80
2022-11-03T22:24:13.882Z,27.10
2022-11-03T22:26:56.929Z,31.80
2022-11-03T22:29:48.137Z,32.00
2022-11-03T22:32:16.165Z,34.40
2022-11-03T22:35:04.097Z,35.80
2022-11-03T22:40:19.067Z,29.40
2022-11-03T22:43:05.773Z,28.60
2022-11-03T22:45:55.776Z,30.60
2022-11-03T22:48:26.476Z,26.70
2022-11-03T22:51:01.499Z,26.10
2022-11-03T22:53:51.060Z,27.10
2022-11-03T22:56:20.567Z,26.50
2022-11-03T22:58:48.554Z,26.70
2022-11-03T23:01:22.962Z,28.90
2022-11-03T23:03:51.080Z,29.90
2022-11-03T23:06:25.900Z,29.90
2022-11-03T23:08:55.765Z,29.00
2022-11-03T23:11:33.329Z,30.30
2022-11-03T23:14:10.480Z,30.40
2022-11-03T23:16:42.438Z,31.10
2022-11-03T23:19:32.971Z,29.90
2022-11-03T23:22:01.944Z,28.10
2022-11-03T23:24:48.857Z,29.50
2022-11-03T23:27:16.584Z,28.70
2022-11-03T23:29:44.264Z,27.40
2022-11-03T23:32:12.841Z,28.20
2022-11-03T23:34:40.783Z,30.70
2022-11-03T23:37:08.747Z,25.50
2022-11-03T23:39:36.680Z,25.90
2022-11-03T23:42:04.827Z,29.20
2022-11-03T23:44:52.732Z,25.70
2022-11-03T23:47:39.005Z,25.20
2022-11-03T23:50:07.994Z,25.00
2022-11-03T23:52:35.939Z,25.40
2022-11-03T23:55:04.763Z,29.20
2022-11-03T23:57:51.380Z,25.40
